ADDS METAR Data INFO
IDs: Format: Raw Decoded Include TAF

Data at: 1243 UTC 19 Oct 2017

METAR for:KFPR (Ft Pierce/St Lucie I, FL, US)
Text:KFPR 191153Z 07006KT 10SM FEW024 SCT060 26/23 A3003 RMK AO2 SLP169 70003 T02610228 10261 20256 51009
Temperature: 26.1°C ( 79°F)
Dewpoint: 22.8°C ( 73°F) [RH = 82%]
Pressure (altimeter):30.03 inches Hg (1017.0 mb) [Sea level pressure: 1016.9 mb]
Winds:from the ENE (70 degrees) at 7 MPH (6 knots; 3.1 m/s)
Visibility:10 or more sm (16+ km)
Ceiling:at least 12,000 feet AGL
Clouds: few clouds at 2400 feet AGL, scattered clouds at 6000 feet AGL